Time;durP1;ratioP1;P1;durP2;ratioP2;P2;SDS_P1;SDS_P2;PMS_P1;PMS_P2;Temp;Humidity;BMP_temperature;BMP_pressure;BME280_temperature;BME280_humidity;BME280_pressure;Samples;Min_cycle;Max_cycle;Signal;HPM_P1;HPM_P2
2022/07/09 00:01:39;;;;;;;74.95;36.88;;;;;;;;;;5042702;28;20033;-74
2022/07/09 00:04:05;;;;;;;84.07;38.63;;;;;;;;;;5045378;28;20037;-75
2022/07/09 00:06:31;;;;;;;86.10;39.65;;;;;;;;;;5045471;28;20039;-75
2022/07/09 00:08:58;;;;;;;94.03;41.67;;;;;;;;;;5045556;28;20036;-75
2022/07/09 00:11:24;;;;;;;92.72;39.75;;;;;;;;;;5044202;28;20032;-75
2022/07/09 00:13:50;;;;;;;93.03;42.38;;;;;;;;;;5044717;28;20518;-75
2022/07/09 00:16:16;;;;;;;94.82;41.28;;;;;;;;;;5043594;28;20026;-76
2022/07/09 00:18:42;;;;;;;93.05;41.08;;;;;;;;;;5045474;28;20108;-75
2022/07/09 00:21:08;;;;;;;79.18;38.20;;;;;;;;;;5045303;28;20909;-75
2022/07/09 00:23:34;;;;;;;96.50;41.25;;;;;;;;;;5036441;28;20118;-75
2022/07/09 00:26:00;;;;;;;86.88;38.60;;;;;;;;;;5040841;28;20047;-75
2022/07/09 00:28:26;;;;;;;88.38;39.63;;;;;;;;;;5040775;28;20501;-76
2022/07/09 00:30:52;;;;;;;94.50;41.78;;;;;;;;;;5043922;28;20029;-75
2022/07/09 00:33:18;;;;;;;79.82;38.28;;;;;;;;;;5038282;28;20128;-75
2022/07/09 00:35:44;;;;;;;92.53;41.83;;;;;;;;;;5042839;28;20112;-75
2022/07/09 00:38:10;;;;;;;101.50;45.55;;;;;;;;;;5048608;28;20116;-74
2022/07/09 00:40:36;;;;;;;106.30;45.97;;;;;;;;;;5044666;28;20094;-74
2022/07/09 00:43:02;;;;;;;105.25;44.85;;;;;;;;;;5044671;28;20462;-74
2022/07/09 00:45:28;;;;;;;89.35;39.95;;;;;;;;;;5043388;28;20083;-74
2022/07/09 00:47:54;;;;;;;83.70;39.42;;;;;;;;;;5045702;28;20033;-75
2022/07/09 00:50:21;;;;;;;82.70;38.87;;;;;;;;;;5005654;28;1097857;-75
2022/07/09 00:52:48;;;;;;;83.57;36.72;;;;;;;;;;5037188;28;20029;-74
2022/07/09 00:55:14;;;;;;;98.43;43.47;;;;;;;;;;5044477;28;20127;-74
2022/07/09 00:57:41;;;;;;;90.80;38.42;;;;;;;;;;5043878;28;20029;-74
2022/07/09 01:00:07;;;;;;;91.35;40.28;;;;;;;;;;5044555;28;20029;-74
2022/07/09 01:02:34;;;;;;;98.28;42.83;;;;;;;;;;5046394;28;20025;-75
2022/07/09 01:05:00;;;;;;;105.45;43.67;;;;;;;;;;5047114;28;20887;-74
2022/07/09 01:07:26;;;;;;;112.38;43.17;;;;;;;;;;5027432;28;20026;-74
2022/07/09 01:09:52;;;;;;;125.15;47.95;;;;;;;;;;5047110;28;20032;-74
2022/07/09 01:12:18;;;;;;;122.93;48.05;;;;;;;;;;5046505;28;20025;-74
2022/07/09 01:14:44;;;;;;;145.60;50.15;;;;;;;;;;5040741;28;20033;-75
2022/07/09 01:17:10;;;;;;;145.00;54.97;;;;;;;;;;5039380;28;20021;-75
2022/07/09 01:19:36;;;;;;;146.43;52.45;;;;;;;;;;5041998;28;20095;-75
2022/07/09 01:22:03;;;;;;;159.82;54.13;;;;;;;;;;5043834;28;20435;-74
2022/07/09 01:24:29;;;;;;;147.10;52.83;;;;;;;;;;5047398;28;20032;-75
2022/07/09 01:26:55;;;;;;;155.07;57.72;;;;;;;;;;5058887;28;20033;-74
2022/07/09 01:29:21;;;;;;;142.48;54.08;;;;;;;;;;5047090;28;20488;-74
2022/07/09 01:31:47;;;;;;;157.95;55.85;;;;;;;;;;5028138;28;20025;-76
2022/07/09 01:34:13;;;;;;;160.82;59.85;;;;;;;;;;5047013;28;20067;-74
2022/07/09 01:36:39;;;;;;;163.73;58.78;;;;;;;;;;5048241;28;20033;-75
2022/07/09 01:39:05;;;;;;;157.50;58.03;;;;;;;;;;5045112;28;20087;-75
2022/07/09 01:41:32;;;;;;;182.88;63.38;;;;;;;;;;5046510;28;20024;-75
2022/07/09 01:43:58;;;;;;;179.63;63.00;;;;;;;;;;5047159;28;20033;-75
2022/07/09 01:46:24;;;;;;;173.18;59.75;;;;;;;;;;5044106;28;20064;-75
2022/07/09 01:48:50;;;;;;;174.15;60.85;;;;;;;;;;5047215;28;20107;-75
2022/07/09 01:51:16;;;;;;;149.02;56.08;;;;;;;;;;5045204;28;20052;-74
2022/07/09 01:53:42;;;;;;;184.35;62.13;;;;;;;;;;5048336;28;20033;-72
2022/07/09 01:56:09;;;;;;;165.77;61.17;;;;;;;;;;5038032;28;20026;-75
2022/07/09 01:58:35;;;;;;;182.15;62.03;;;;;;;;;;5048944;28;20037;-74
2022/07/09 02:01:01;;;;;;;176.77;60.08;;;;;;;;;;5038140;28;20060;-75
2022/07/09 02:03:27;;;;;;;138.70;52.97;;;;;;;;;;5046318;28;20040;-75
2022/07/09 02:05:53;;;;;;;155.93;53.78;;;;;;;;;;5043944;28;20185;-76
2022/07/09 02:08:19;;;;;;;168.05;58.20;;;;;;;;;;5047767;28;20025;-75
2022/07/09 02:10:45;;;;;;;180.10;59.38;;;;;;;;;;5022851;28;20087;-75
2022/07/09 02:13:12;;;;;;;178.50;60.10;;;;;;;;;;5045443;28;20033;-75
2022/07/09 02:15:39;;;;;;;181.00;61.63;;;;;;;;;;5045298;28;20017;-75
2022/07/09 02:18:05;;;;;;;170.20;58.80;;;;;;;;;;5041967;28;20037;-75
2022/07/09 02:20:32;;;;;;;183.73;58.78;;;;;;;;;;5044897;28;20047;-76
2022/07/09 02:22:58;;;;;;;190.55;62.00;;;;;;;;;;5045838;28;20029;-75
2022/07/09 02:25:24;;;;;;;197.77;61.15;;;;;;;;;;5042230;28;20026;-75
2022/07/09 02:27:50;;;;;;;185.95;60.08;;;;;;;;;;5042740;28;20032;-76
2022/07/09 02:30:16;;;;;;;181.15;58.08;;;;;;;;;;5042488;28;20077;-75
2022/07/09 02:32:42;;;;;;;149.20;53.20;;;;;;;;;;5046264;28;20061;-76
2022/07/09 02:35:08;;;;;;;180.80;58.88;;;;;;;;;;5042837;28;20096;-75
2022/07/09 02:37:35;;;;;;;181.52;60.78;;;;;;;;;;5045964;28;20116;-75
2022/07/09 02:40:01;;;;;;;226.65;69.75;;;;;;;;;;5045292;28;20056;-75
2022/07/09 02:42:27;;;;;;;199.13;69.05;;;;;;;;;;5041375;28;20323;-75
2022/07/09 02:44:53;;;;;;;242.30;71.95;;;;;;;;;;5040162;28;20036;-75
2022/07/09 02:47:19;;;;;;;206.25;68.63;;;;;;;;;;5042258;28;20033;-75
2022/07/09 02:49:45;;;;;;;233.18;72.97;;;;;;;;;;5043567;28;20059;-74
2022/07/09 02:52:11;;;;;;;239.63;72.22;;;;;;;;;;5039681;28;20077;-75
2022/07/09 02:54:37;;;;;;;261.23;79.50;;;;;;;;;;5042261;28;20047;-77
2022/07/09 02:57:03;;;;;;;215.45;69.70;;;;;;;;;;5044244;28;20166;-75
2022/07/09 02:59:29;;;;;;;228.13;73.93;;;;;;;;;;5043534;28;20029;-75
2022/07/09 03:01:55;;;;;;;223.15;69.95;;;;;;;;;;5041770;28;20108;-75
2022/07/09 03:04:21;;;;;;;274.00;77.55;;;;;;;;;;5036717;28;20033;-74
2022/07/09 03:06:48;;;;;;;218.52;75.22;;;;;;;;;;5044594;28;20052;-75
2022/07/09 03:09:14;;;;;;;204.68;72.30;;;;;;;;;;5043758;28;20041;-74
2022/07/09 03:11:41;;;;;;;243.52;78.18;;;;;;;;;;5045118;28;20044;-75
2022/07/09 03:14:06;;;;;;;228.68;78.93;;;;;;;;;;5034217;28;20117;-75
2022/07/09 03:16:33;;;;;;;224.82;78.15;;;;;;;;;;5042573;28;20112;-74
2022/07/09 03:18:59;;;;;;;230.80;78.15;;;;;;;;;;5041607;28;20151;-75
2022/07/09 03:21:25;;;;;;;237.25;80.63;;;;;;;;;;5040046;28;20033;-74
2022/07/09 03:23:51;;;;;;;248.93;81.63;;;;;;;;;;5046834;28;20037;-73
2022/07/09 03:26:17;;;;;;;257.55;83.45;;;;;;;;;;5036395;28;20025;-72
2022/07/09 03:28:43;;;;;;;233.48;81.13;;;;;;;;;;5037269;28;20475;-75
2022/07/09 03:31:09;;;;;;;267.15;82.05;;;;;;;;;;5044941;28;20517;-75
2022/07/09 03:33:36;;;;;;;241.40;77.20;;;;;;;;;;5042944;28;20032;-73
2022/07/09 03:36:02;;;;;;;256.80;81.47;;;;;;;;;;5040655;28;20029;-73
2022/07/09 03:38:28;;;;;;;240.93;77.43;;;;;;;;;;5063139;28;20032;-73
2022/07/09 03:40:54;;;;;;;233.45;78.03;;;;;;;;;;5042157;28;20036;-73
2022/07/09 03:43:20;;;;;;;263.45;80.13;;;;;;;;;;5047662;28;20098;-72
2022/07/09 03:45:46;;;;;;;191.32;71.80;;;;;;;;;;5044043;28;20040;-72
2022/07/09 03:48:12;;;;;;;198.18;76.45;;;;;;;;;;5047000;28;20079;-73
2022/07/09 03:50:38;;;;;;;219.32;75.15;;;;;;;;;;5048842;28;20084;-73
2022/07/09 03:53:04;;;;;;;211.13;71.85;;;;;;;;;;5047450;28;20056;-73
2022/07/09 03:55:30;;;;;;;205.35;72.32;;;;;;;;;;5051706;28;20116;-72
2022/07/09 03:57:56;;;;;;;177.93;70.35;;;;;;;;;;5051808;28;20479;-73
2022/07/09 04:00:22;;;;;;;241.85;76.32;;;;;;;;;;5050435;28;20029;-73
2022/07/09 04:02:48;;;;;;;199.38;71.43;;;;;;;;;;5048720;28;20460;-73
2022/07/09 04:05:14;;;;;;;232.30;74.18;;;;;;;;;;5039863;28;20041;-74
2022/07/09 04:07:41;;;;;;;212.50;72.63;;;;;;;;;;5045987;28;20167;-73
2022/07/09 04:10:08;;;;;;;204.65;73.22;;;;;;;;;;5047241;28;20427;-72
2022/07/09 04:12:34;;;;;;;219.25;76.45;;;;;;;;;;5048888;28;20368;-72
2022/07/09 04:15:03;;;;;;;207.18;73.15;;;;;;;;;;5042869;28;20461;-72
2022/07/09 04:17:29;;;;;;;195.02;70.03;;;;;;;;;;5046383;28;20087;-75
2022/07/09 04:19:55;;;;;;;170.70;64.85;;;;;;;;;;5046473;28;20048;-74
2022/07/09 04:22:21;;;;;;;150.45;59.55;;;;;;;;;;5046753;28;20037;-74
2022/07/09 04:24:47;;;;;;;145.95;59.75;;;;;;;;;;5047924;28;20548;-73
2022/07/09 04:27:13;;;;;;;138.77;57.95;;;;;;;;;;5049063;28;20026;-74
2022/07/09 04:29:39;;;;;;;140.77;54.67;;;;;;;;;;5047209;28;20049;-74
2022/07/09 04:32:05;;;;;;;135.70;56.45;;;;;;;;;;5046797;28;20040;-72
2022/07/09 04:34:31;;;;;;;150.63;57.05;;;;;;;;;;5046440;28;20107;-73
2022/07/09 04:36:57;;;;;;;152.52;57.17;;;;;;;;;;5048428;28;20095;-75
2022/07/09 04:39:24;;;;;;;139.82;55.25;;;;;;;;;;5046542;28;20032;-74
2022/07/09 04:41:50;;;;;;;149.88;57.97;;;;;;;;;;5042798;28;20123;-74
2022/07/09 04:44:16;;;;;;;152.02;56.65;;;;;;;;;;5042105;28;20064;-73
2022/07/09 04:46:43;;;;;;;142.80;56.20;;;;;;;;;;5047428;28;20071;-75
2022/07/09 04:49:09;;;;;;;135.63;53.53;;;;;;;;;;5043895;28;20102;-74
2022/07/09 04:51:35;;;;;;;128.60;53.40;;;;;;;;;;5039575;28;20241;-74
2022/07/09 04:54:01;;;;;;;116.20;51.75;;;;;;;;;;5045986;28;20040;-73
2022/07/09 04:56:27;;;;;;;114.18;51.00;;;;;;;;;;5046651;28;20039;-74
2022/07/09 04:58:54;;;;;;;112.05;50.97;;;;;;;;;;5045673;28;20033;-72
2022/07/09 05:01:20;;;;;;;112.88;50.88;;;;;;;;;;5042759;28;20181;-72
2022/07/09 05:03:47;;;;;;;97.18;48.78;;;;;;;;;;5045966;28;20064;-72
2022/07/09 05:06:14;;;;;;;95.22;47.75;;;;;;;;;;5046252;28;20028;-73
2022/07/09 05:08:40;;;;;;;88.85;44.70;;;;;;;;;;5046374;28;20028;-73
2022/07/09 05:11:06;;;;;;;72.38;41.05;;;;;;;;;;5043003;28;20025;-73
2022/07/09 05:13:32;;;;;;;86.32;40.92;;;;;;;;;;5042746;28;20391;-72
2022/07/09 05:15:59;;;;;;;67.63;39.45;;;;;;;;;;5044241;28;20053;-73
2022/07/09 05:18:25;;;;;;;61.53;37.72;;;;;;;;;;5042203;28;20051;-73
2022/07/09 05:20:51;;;;;;;59.20;36.35;;;;;;;;;;5042897;28;20036;-74
2022/07/09 05:23:17;;;;;;;57.42;35.25;;;;;;;;;;5043609;28;20155;-74
2022/07/09 05:25:43;;;;;;;60.40;35.05;;;;;;;;;;5038922;28;20060;-74
2022/07/09 05:28:09;;;;;;;56.03;34.63;;;;;;;;;;5044736;28;20049;-73
2022/07/09 05:30:37;;;;;;;58.28;34.15;;;;;;;;;;5039372;28;20037;-73
2022/07/09 05:33:03;;;;;;;55.92;33.95;;;;;;;;;;5046346;28;20155;-74
2022/07/09 05:35:30;;;;;;;53.45;34.50;;;;;;;;;;5040819;28;20051;-72
2022/07/09 05:37:56;;;;;;;56.13;33.83;;;;;;;;;;5040465;28;20069;-73
2022/07/09 05:40:22;;;;;;;48.88;32.10;;;;;;;;;;5039671;28;20033;-73
2022/07/09 05:42:48;;;;;;;48.55;29.05;;;;;;;;;;5043091;28;20471;-73
2022/07/09 05:45:14;;;;;;;42.40;27.33;;;;;;;;;;5050876;28;20196;-73
2022/07/09 05:47:40;;;;;;;37.97;25.30;;;;;;;;;;5047508;28;20427;-73
2022/07/09 05:50:06;;;;;;;35.05;25.40;;;;;;;;;;5042622;28;20033;-74
2022/07/09 05:52:32;;;;;;;39.20;27.02;;;;;;;;;;5041482;28;20036;-75
2022/07/09 05:54:58;;;;;;;37.58;25.30;;;;;;;;;;5045141;28;20033;-74
2022/07/09 05:57:25;;;;;;;40.58;26.20;;;;;;;;;;5046620;28;20041;-73
2022/07/09 05:59:51;;;;;;;39.88;24.65;;;;;;;;;;5049156;28;20060;-73
2022/07/09 06:02:18;;;;;;;35.03;23.38;;;;;;;;;;5041343;28;20107;-74
2022/07/09 06:04:44;;;;;;;38.70;24.65;;;;;;;;;;5040983;28;20041;-74
2022/07/09 06:07:10;;;;;;;26.85;20.05;;;;;;;;;;5046691;28;20105;-74
2022/07/09 06:09:36;;;;;;;28.98;18.02;;;;;;;;;;5041006;28;20112;-75
2022/07/09 06:12:03;;;;;;;23.77;17.92;;;;;;;;;;5047871;28;20083;-75
2022/07/09 06:14:29;;;;;;;22.65;16.98;;;;;;;;;;5049840;28;20044;-75
2022/07/09 06:16:55;;;;;;;29.48;17.48;;;;;;;;;;5040971;28;20033;-74
2022/07/09 06:19:21;;;;;;;23.38;16.55;;;;;;;;;;5042044;28;20119;-75
2022/07/09 06:21:47;;;;;;;31.30;17.48;;;;;;;;;;5039189;28;20029;-73
2022/07/09 06:24:13;;;;;;;21.77;16.92;;;;;;;;;;5038402;28;20514;-74
2022/07/09 06:26:39;;;;;;;22.33;15.85;;;;;;;;;;5036811;28;20120;-74
2022/07/09 06:29:05;;;;;;;22.60;15.35;;;;;;;;;;5033827;28;20037;-74
2022/07/09 06:31:31;;;;;;;23.00;16.65;;;;;;;;;;5039816;28;20565;-74
2022/07/09 06:33:58;;;;;;;23.58;17.40;;;;;;;;;;5042284;28;20108;-73
2022/07/09 06:36:24;;;;;;;24.98;17.25;;;;;;;;;;5035840;28;20049;-73
2022/07/09 06:41:35;;;;;;;22.27;18.38;;;;;;;;;;5037341;28;20044;-76
2022/07/09 06:44:01;;;;;;;27.65;18.50;;;;;;;;;;5040392;28;20033;-74
2022/07/09 06:46:27;;;;;;;25.92;18.52;;;;;;;;;;5039800;28;20032;-76
2022/07/09 06:48:53;;;;;;;24.30;18.35;;;;;;;;;;5035421;28;20219;-75
2022/07/09 06:51:19;;;;;;;26.40;17.40;;;;;;;;;;5032344;28;20133;-77
2022/07/09 06:53:45;;;;;;;21.67;16.73;;;;;;;;;;5027414;28;20104;-77
2022/07/09 06:56:11;;;;;;;20.73;16.98;;;;;;;;;;5029124;28;20399;-76
2022/07/09 06:58:37;;;;;;;25.00;16.00;;;;;;;;;;5028226;28;20029;-76
2022/07/09 07:01:03;;;;;;;19.90;15.73;;;;;;;;;;5028916;28;20029;-75
2022/07/09 07:03:29;;;;;;;21.13;15.60;;;;;;;;;;5046561;28;20450;-77
2022/07/09 07:05:55;;;;;;;24.98;15.88;;;;;;;;;;5051732;28;20033;-77
2022/07/09 07:08:21;;;;;;;19.20;15.88;;;;;;;;;;5052775;28;20044;-77
2022/07/09 07:10:47;;;;;;;18.98;14.45;;;;;;;;;;5050797;28;20056;-78
2022/07/09 07:13:13;;;;;;;17.77;15.68;;;;;;;;;;5044809;28;20041;-76
2022/07/09 07:15:39;;;;;;;22.80;17.02;;;;;;;;;;5039770;28;20418;-75
2022/07/09 07:18:05;;;;;;;24.30;18.45;;;;;;;;;;5055895;28;20509;-75
2022/07/09 07:20:31;;;;;;;21.13;17.35;;;;;;;;;;5050299;28;20037;-75
2022/07/09 07:22:57;;;;;;;21.00;17.33;;;;;;;;;;5042104;28;20037;-75
2022/07/09 07:25:24;;;;;;;24.10;17.38;;;;;;;;;;5035217;28;20079;-75
2022/07/09 07:27:50;;;;;;;23.55;18.25;;;;;;;;;;5055132;28;20017;-76
2022/07/09 07:30:16;;;;;;;23.58;18.15;;;;;;;;;;5056217;28;20074;-76
2022/07/09 07:32:43;;;;;;;23.80;18.92;;;;;;;;;;5052232;28;20033;-75
2022/07/09 07:35:09;;;;;;;28.30;17.63;;;;;;;;;;5055597;28;20033;-76
2022/07/09 07:37:35;;;;;;;22.38;16.38;;;;;;;;;;5054901;28;20033;-75
2022/07/09 07:40:01;;;;;;;24.10;16.05;;;;;;;;;;5054752;28;20029;-76
2022/07/09 07:42:27;;;;;;;21.88;15.95;;;;;;;;;;5054713;28;20052;-74
2022/07/09 07:44:53;;;;;;;21.58;13.07;;;;;;;;;;5052437;28;20128;-75
2022/07/09 07:47:19;;;;;;;16.98;13.27;;;;;;;;;;5040900;28;20455;-75
2022/07/09 07:49:45;;;;;;;17.75;12.40;;;;;;;;;;5032815;28;20080;-76
2022/07/09 07:52:12;;;;;;;16.50;13.48;;;;;;;;;;5031721;28;20140;-75
2022/07/09 07:54:38;;;;;;;12.52;9.00;;;;;;;;;;5031220;28;20083;-75
2022/07/09 07:57:04;;;;;;;11.60;7.57;;;;;;;;;;5039270;28;20264;-76
2022/07/09 07:59:30;;;;;;;9.45;4.80;;;;;;;;;;5048643;28;20132;-76
2022/07/09 08:01:56;;;;;;;6.10;3.40;;;;;;;;;;5034628;28;20453;-76
2022/07/09 08:04:22;;;;;;;6.95;4.00;;;;;;;;;;5052302;28;20501;-76
2022/07/09 08:06:48;;;;;;;9.02;3.78;;;;;;;;;;5052350;28;20037;-74
2022/07/09 08:09:14;;;;;;;5.88;3.42;;;;;;;;;;5051637;28;20078;-76
2022/07/09 08:11:40;;;;;;;7.00;3.60;;;;;;;;;;5052474;28;20202;-76
2022/07/09 08:14:08;;;;;;;6.07;3.40;;;;;;;;;;5050442;28;20029;-75
2022/07/09 08:16:34;;;;;;;7.80;3.20;;;;;;;;;;5037866;28;20040;-77
2022/07/09 08:19:00;;;;;;;6.95;3.33;;;;;;;;;;5033257;28;20029;-79
2022/07/09 08:21:26;;;;;;;6.30;3.40;;;;;;;;;;5045830;28;20036;-76
2022/07/09 08:23:56;;;;;;;5.25;3.28;;;;;;;;;;5052150;28;20108;-76
2022/07/09 08:26:23;;;;;;;8.90;3.38;;;;;;;;;;5052669;28;20025;-77
2022/07/09 08:28:49;;;;;;;9.68;3.90;;;;;;;;;;5052437;28;20025;-78
2022/07/09 08:31:16;;;;;;;8.05;4.13;;;;;;;;;;5066410;28;20488;-77
2022/07/09 08:33:42;;;;;;;7.53;3.97;;;;;;;;;;5052527;28;20033;-77
2022/07/09 08:36:08;;;;;;;7.20;3.80;;;;;;;;;;5052401;28;20126;-76
2022/07/09 08:38:34;;;;;;;18.55;4.28;;;;;;;;;;5051296;28;20505;-76
2022/07/09 08:41:01;;;;;;;8.98;3.22;;;;;;;;;;5049654;28;20025;-77
2022/07/09 08:43:27;;;;;;;4.60;2.45;;;;;;;;;;5046715;28;20027;-76
2022/07/09 08:45:56;;;;;;;6.93;2.40;;;;;;;;;;5032111;28;20049;-76
2022/07/09 08:48:22;;;;;;;6.55;2.45;;;;;;;;;;5038780;28;20047;-77
2022/07/09 08:50:49;;;;;;;4.03;1.60;;;;;;;;;;5030372;28;20081;-78
2022/07/09 08:53:17;;;;;;;9.05;1.90;;;;;;;;;;5032433;28;20083;-76
2022/07/09 08:55:43;;;;;;;4.47;1.90;;;;;;;;;;5031241;28;20034;-77
2022/07/09 08:58:12;;;;;;;8.20;2.28;;;;;;;;;;5032729;28;20035;-77
2022/07/09 09:00:38;;;;;;;4.68;2.00;;;;;;;;;;5031053;28;20399;-75
2022/07/09 09:03:05;;;;;;;3.58;1.60;;;;;;;;;;5033665;28;20045;-76
2022/07/09 09:05:31;;;;;;;3.75;1.80;;;;;;;;;;5045229;28;20033;-77
2022/07/09 09:07:57;;;;;;;5.20;1.45;;;;;;;;;;5053033;28;20036;-77
2022/07/09 09:10:27;;;;;;;6.53;1.80;;;;;;;;;;5054046;28;20501;-77
2022/07/09 09:12:56;;;;;;;5.28;1.58;;;;;;;;;;5053197;28;20025;-76
2022/07/09 09:15:22;;;;;;;4.38;1.58;;;;;;;;;;5051175;28;20040;-77
2022/07/09 09:17:48;;;;;;;6.65;1.60;;;;;;;;;;5040218;28;20494;-76
2022/07/09 09:20:15;;;;;;;2.25;1.25;;;;;;;;;;5042612;28;20036;-75
2022/07/09 09:22:45;;;;;;;4.90;1.63;;;;;;;;;;5037411;28;20068;-76
2022/07/09 09:25:18;;;;;;;4.43;1.25;;;;;;;;;;5040532;28;20048;-77
2022/07/09 09:27:57;;;;;;;6.45;1.25;;;;;;;;;;5048884;28;20021;-75
2022/07/09 09:30:24;;;;;;;3.22;1.35;;;;;;;;;;5037383;28;20150;-77
2022/07/09 09:33:00;;;;;;;3.83;1.25;;;;;;;;;;5045827;28;20039;-76
2022/07/09 09:35:26;;;;;;;2.67;1.00;;;;;;;;;;5027367;28;20129;-77
2022/07/09 09:37:53;;;;;;;5.03;1.52;;;;;;;;;;5053386;28;20001;-83
2022/07/09 09:40:19;;;;;;;3.70;1.00;;;;;;;;;;5056307;28;20420;-86
2022/07/09 09:42:45;;;;;;;3.95;1.20;;;;;;;;;;5052055;28;20046;-85
2022/07/09 09:45:15;;;;;;;5.35;1.80;;;;;;;;;;5060365;28;20045;-86
2022/07/09 09:47:52;;;;;;;3.15;1.30;;;;;;;;;;5062138;28;20017;-84
2022/07/09 09:50:20;;;;;;;7.38;1.42;;;;;;;;;;5060744;28;20021;-83
2022/07/09 09:52:47;;;;;;;8.27;1.50;;;;;;;;;;5056380;28;20037;-80
2022/07/09 09:55:14;;;;;;;5.63;1.48;;;;;;;;;;5046852;28;20033;-81
2022/07/09 09:57:41;;;;;;;3.92;1.27;;;;;;;;;;5059199;28;20053;-83
2022/07/09 10:00:08;;;;;;;3.80;1.42;;;;;;;;;;5060167;28;20039;-79
2022/07/09 10:02:38;;;;;;;4.95;1.58;;;;;;;;;;5052660;28;20025;-82
2022/07/09 10:05:04;;;;;;;6.65;1.80;;;;;;;;;;5059953;28;20048;-84
2022/07/09 10:07:32;;;;;;;8.23;1.85;;;;;;;;;;5057142;28;20133;-85
2022/07/09 10:09:59;;;;;;;4.65;1.60;;;;;;;;;;5050164;28;20042;-84
2022/07/09 10:12:29;;;;;;;5.32;1.55;;;;;;;;;;5062063;28;20080;-82
2022/07/09 10:14:55;;;;;;;5.30;1.70;;;;;;;;;;5067922;28;20055;-78
2022/07/09 10:17:21;;;;;;;4.13;1.60;;;;;;;;;;5058484;28;20033;-84
2022/07/09 10:19:52;;;;;;;4.85;1.80;;;;;;;;;;5040551;28;20458;-82
2022/07/09 10:22:18;;;;;;;4.97;1.70;;;;;;;;;;5061165;28;20013;-81
2022/07/09 10:24:46;;;;;;;6.70;1.70;;;;;;;;;;5053622;28;20102;-80
2022/07/09 10:27:13;;;;;;;3.95;1.33;;;;;;;;;;5058185;28;20017;-78
2022/07/09 10:29:51;;;;;;;7.13;1.80;;;;;;;;;;5056812;28;20045;-80
2022/07/09 10:32:29;;;;;;;7.65;1.73;;;;;;;;;;5057623;28;20044;-79
2022/07/09 10:34:58;;;;;;;7.63;2.00;;;;;;;;;;5055431;28;20161;-78
2022/07/09 10:37:31;;;;;;;5.25;2.00;;;;;;;;;;5059618;28;20029;-81
2022/07/09 10:39:57;;;;;;;2.67;1.60;;;;;;;;;;5055481;28;20080;-81
2022/07/09 10:42:23;;;;;;;3.80;1.40;;;;;;;;;;5049107;28;20055;-81
2022/07/09 10:44:51;;;;;;;2.80;1.50;;;;;;;;;;5043602;28;20025;-81
2022/07/09 10:47:17;;;;;;;4.82;1.45;;;;;;;;;;5057066;28;20140;-80
2022/07/09 10:49:43;;;;;;;7.20;2.00;;;;;;;;;;5059215;28;20100;-81
2022/07/09 10:52:09;;;;;;;5.32;1.77;;;;;;;;;;5051537;28;20061;-81
2022/07/09 10:54:45;;;;;;;6.03;1.60;;;;;;;;;;5053136;28;20385;-80
2022/07/09 10:57:11;;;;;;;4.35;1.42;;;;;;;;;;5060083;28;20033;-81
2022/07/09 10:59:37;;;;;;;7.07;1.20;;;;;;;;;;5056329;28;20040;-82
2022/07/09 11:02:03;;;;;;;5.63;1.10;;;;;;;;;;5055596;28;20029;-82
2022/07/09 11:04:30;;;;;;;3.45;1.38;;;;;;;;;;5050154;28;20048;-81
2022/07/09 11:06:56;;;;;;;3.20;1.10;;;;;;;;;;5045936;28;20098;-76
2022/07/09 11:09:22;;;;;;;2.30;1.00;;;;;;;;;;5060072;28;20033;-81
2022/07/09 11:11:49;;;;;;;2.90;1.23;;;;;;;;;;5054680;28;20021;-79
2022/07/09 11:14:15;;;;;;;5.85;1.38;;;;;;;;;;5051258;28;20085;-79
2022/07/09 11:16:41;;;;;;;7.13;1.63;;;;;;;;;;5061536;28;20104;-79
2022/07/09 11:19:14;;;;;;;4.10;1.27;;;;;;;;;;5048006;28;20061;-79
2022/07/09 11:21:41;;;;;;;3.00;1.50;;;;;;;;;;5056352;28;20038;-80
2022/07/09 11:24:22;;;;;;;4.18;1.40;;;;;;;;;;5047310;28;20025;-80
2022/07/09 11:26:48;;;;;;;5.45;1.60;;;;;;;;;;5059704;28;20031;-77
2022/07/09 11:29:14;;;;;;;6.65;1.40;;;;;;;;;;5056540;28;20128;-79
2022/07/09 11:31:48;;;;;;;3.95;1.40;;;;;;;;;;5059284;28;20029;-79
2022/07/09 11:34:15;;;;;;;6.38;1.58;;;;;;;;;;5043396;28;20067;-79
2022/07/09 11:36:44;;;;;;;8.95;1.50;;;;;;;;;;5050366;28;20541;-79
2022/07/09 11:39:21;;;;;;;5.63;1.35;;;;;;;;;;5061317;28;20022;-82
2022/07/09 11:41:47;;;;;;;5.00;1.45;;;;;;;;;;5046308;28;20024;-82
2022/07/09 11:44:21;;;;;;;4.28;1.30;;;;;;;;;;5060150;28;20455;-79
2022/07/09 11:46:57;;;;;;;4.25;1.30;;;;;;;;;;5054285;28;20032;-79
2022/07/09 11:49:23;;;;;;;9.98;1.55;;;;;;;;;;5054221;28;20048;-82
2022/07/09 11:51:49;;;;;;;8.05;1.75;;;;;;;;;;5056346;28;20049;-78
2022/07/09 11:54:26;;;;;;;7.32;1.60;;;;;;;;;;5060046;28;20016;-82
2022/07/09 11:56:52;;;;;;;8.07;1.33;;;;;;;;;;5057680;28;20084;-82
2022/07/09 11:59:30;;;;;;;6.13;1.45;;;;;;;;;;5040221;28;20119;-80
2022/07/09 12:01:57;;;;;;;5.90;1.50;;;;;;;;;;5052181;28;20044;-80
2022/07/09 12:04:23;;;;;;;6.07;1.40;;;;;;;;;;5046052;28;20136;-79
2022/07/09 12:06:49;;;;;;;4.35;1.75;;;;;;;;;;5047616;28;20071;-78
2022/07/09 12:09:16;;;;;;;4.68;1.40;;;;;;;;;;5053806;28;20017;-80
2022/07/09 12:11:42;;;;;;;7.32;1.30;;;;;;;;;;5049311;28;20055;-78
2022/07/09 12:14:10;;;;;;;4.53;1.42;;;;;;;;;;5059564;28;20037;-78
2022/07/09 12:16:36;;;;;;;8.90;2.17;;;;;;;;;;5049257;28;20071;-77
2022/07/09 12:19:02;;;;;;;5.70;1.98;;;;;;;;;;5047807;28;20041;-78
2022/07/09 12:21:28;;;;;;;6.80;1.90;;;;;;;;;;5047110;28;20032;-78
2022/07/09 12:23:54;;;;;;;7.53;1.60;;;;;;;;;;5027354;28;20183;-78
2022/07/09 12:26:20;;;;;;;5.72;1.50;;;;;;;;;;5048277;28;20340;-79
2022/07/09 12:28:46;;;;;;;6.43;1.70;;;;;;;;;;5048539;28;20555;-78
2022/07/09 12:31:12;;;;;;;2.75;1.00;;;;;;;;;;5047717;28;20056;-78
2022/07/09 12:33:38;;;;;;;6.75;1.58;;;;;;;;;;5045059;28;20036;-80
2022/07/09 12:36:04;;;;;;;3.40;1.40;;;;;;;;;;5046301;28;20029;-78
2022/07/09 12:38:30;;;;;;;5.25;1.90;;;;;;;;;;5036807;28;20032;-78
2022/07/09 12:40:56;;;;;;;4.10;1.60;;;;;;;;;;5048301;28;20047;-78
2022/07/09 12:43:22;;;;;;;5.88;1.48;;;;;;;;;;5044336;28;20025;-78
2022/07/09 12:45:48;;;;;;;4.53;1.52;;;;;;;;;;5046155;28;20036;-79
2022/07/09 12:48:14;;;;;;;6.43;1.35;;;;;;;;;;5044782;28;20021;-79
2022/07/09 12:50:41;;;;;;;5.47;1.23;;;;;;;;;;5046669;28;20021;-80
2022/07/09 12:53:07;;;;;;;3.55;1.23;;;;;;;;;;5042020;28;20041;-80
2022/07/09 12:55:33;;;;;;;4.15;1.17;;;;;;;;;;5045384;28;20041;-79
2022/07/09 12:57:59;;;;;;;4.85;1.27;;;;;;;;;;5047790;28;20040;-78
2022/07/09 13:00:25;;;;;;;4.45;1.17;;;;;;;;;;5046920;28;20048;-80
2022/07/09 13:02:51;;;;;;;3.55;0.93;;;;;;;;;;5047196;28;20045;-81
2022/07/09 13:05:17;;;;;;;6.75;1.40;;;;;;;;;;5049182;28;20094;-80
2022/07/09 13:07:43;;;;;;;4.38;1.23;;;;;;;;;;5045133;28;20542;-80
2022/07/09 13:10:09;;;;;;;3.65;1.25;;;;;;;;;;5045847;28;20542;-81
2022/07/09 13:12:35;;;;;;;3.97;1.05;;;;;;;;;;5052576;28;20041;-80
2022/07/09 13:15:02;;;;;;;4.03;1.30;;;;;;;;;;5048262;28;20033;-80
2022/07/09 13:17:28;;;;;;;9.10;1.35;;;;;;;;;;5054392;28;20030;-81
2022/07/09 13:19:55;;;;;;;6.22;1.02;;;;;;;;;;5042980;28;20368;-77
2022/07/09 13:22:28;;;;;;;5.13;1.40;;;;;;;;;;5057368;28;20417;-79
2022/07/09 13:24:54;;;;;;;10.05;1.83;;;;;;;;;;5056212;28;20045;-80
2022/07/09 13:27:20;;;;;;;8.23;2.13;;;;;;;;;;5046343;28;20487;-79
2022/07/09 13:29:46;;;;;;;10.15;2.20;;;;;;;;;;5041972;28;20403;-77
2022/07/09 13:32:13;;;;;;;10.52;2.10;;;;;;;;;;5030624;28;20041;-79
2022/07/09 13:34:39;;;;;;;12.63;2.75;;;;;;;;;;5051394;28;20033;-78
2022/07/09 13:37:05;;;;;;;14.73;2.28;;;;;;;;;;5052374;28;20053;-77
2022/07/09 13:39:31;;;;;;;10.93;2.35;;;;;;;;;;5060154;28;20040;-78
2022/07/09 13:41:58;;;;;;;11.68;2.15;;;;;;;;;;5047745;28;20051;-76
2022/07/09 13:44:34;;;;;;;;;;;;;;;;;;;;;
2022/07/09 13:47:00;;;;;;;14.35;1.80;;;;;;;;;;5046125;28;20029;-77
2022/07/09 13:49:26;;;;;;;8.65;2.10;;;;;;;;;;5048521;28;20067;-79
2022/07/09 13:51:53;;;;;;;14.00;2.70;;;;;;;;;;5047943;28;20067;-77
2022/07/09 13:54:19;;;;;;;9.70;2.53;;;;;;;;;;5044691;28;20537;-77
2022/07/09 13:56:45;;;;;;;11.00;2.08;;;;;;;;;;5038684;28;20029;-76
2022/07/09 13:59:13;;;;;;;10.70;1.63;;;;;;;;;;5043987;28;20038;-80
2022/07/09 14:01:39;;;;;;;7.88;2.00;;;;;;;;;;5045246;28;20029;-78
2022/07/09 14:04:05;;;;;;;9.45;1.95;;;;;;;;;;5028303;28;20508;-77
2022/07/09 14:06:32;;;;;;;8.80;1.70;;;;;;;;;;5040681;28;20021;-79
2022/07/09 14:08:58;;;;;;;6.78;1.90;;;;;;;;;;5049350;28;20033;-79
2022/07/09 14:11:25;;;;;;;9.40;1.90;;;;;;;;;;5062227;28;20031;-78
2022/07/09 14:13:53;;;;;;;10.85;2.38;;;;;;;;;;5042010;28;20040;-78
2022/07/09 14:16:22;;;;;;;6.50;1.58;;;;;;;;;;5039968;28;20066;-78
2022/07/09 14:18:48;;;;;;;8.32;1.73;;;;;;;;;;5044572;28;20551;-78
2022/07/09 14:21:14;;;;;;;7.95;2.08;;;;;;;;;;5039029;28;20037;-75
2022/07/09 14:23:41;;;;;;;11.32;3.15;;;;;;;;;;5043163;28;20024;-79
2022/07/09 14:26:07;;;;;;;7.20;1.50;;;;;;;;;;5042027;28;20140;-78